• Join FlightAware (Why Join?)
  • Login
  • US Flag 
08:47AM EDT


 

Airport Tracker/Info


-or-


 

Live Flight TrackerFlight Track Log ✈ SWA2702 ✈ 06-Apr-2013 ✈ KHOU - KMAF

Flight Track Log - Related Links

Times and Time Zones

All times are in EDT time to prevent confusion due to time zone crossing. See the SWA2702 flight status page for this flight to view local times or setup timezone preferences in your user account.

Time Position Orientation Groundspeed Altitude Reporting Facility
EDT Latitude Longitude Course Direction KTS MPH feet Rate Location/Type
08:52PM 29.6356 -95.2914 226° Southwest 152 175 800  Level Houston Center
08:53PM 29.5958 -95.3394 226° Southwest 220 253 3,700 2,640 Climbing Houston Center
08:54PM 29.5844 -95.3525 225° Southwest 214 246 4,500 3,660 Climbing Houston Center
08:54PM 29.5722 -95.4025 254° West 268 308 7,100 3,600 Climbing Houston Center
08:55PM 29.5753 -95.4306 277° West 258 297 8,200 2,700 Climbing Houston Center
08:56PM 29.5969 -95.5172 286° West 288 331 10,900 2,880 Climbing Houston Center
08:57PM 29.6439 -95.6094 300° West 328 377 14,200 3,060 Climbing Houston Center
08:58PM 29.6892 -95.7031 299° West 334 384 17,200 2,640 Climbing Houston Center
08:59PM 29.7364 -95.8003 299° West 347 399 19,600 2,160 Climbing Houston Center
09:00PM 29.7797 -95.9078 295° West 369 425 21,600 2,100 Climbing Houston Center
09:01PM 29.8211 -96.0169 294° West 379 436 23,900 2,100 Climbing Houston Center
09:02PM 29.8650 -96.1292 294° West 384 442 25,900 2,280 Climbing Houston Center
09:03PM 29.9181 -96.2661 294° West 391 450 28,600 2,220 Climbing Houston Center
09:04PM 29.9600 -96.3772 294° West 382 440 30,500 1,440 Climbing Houston Center
09:05PM 30.0044 -96.4931 294° West 394 453 31,600 1,500 Climbing Houston Center
09:06PM 30.0483 -96.6092 294° West 396 456 33,600 1,500 Climbing Houston Center
09:07PM 30.0914 -96.7219 294° West 389 448 34,700 1,140 Climbing Houston Center
09:08PM 30.1403 -96.8506 294° West 395 455 36,000 600 Climbing Houston Center
09:09PM 30.1833 -96.9675 293° West 392 451 36,000  Level Houston Center
09:10PM 30.2272 -97.0842 294° West 392 451 36,000  Level Houston Center
09:11PM 30.2714 -97.2022 293° West 394 453 36,000  Level Houston Center
09:12PM 30.3156 -97.3186 294° West 390 449 36,000  Level Houston Center
09:13PM 30.3597 -97.4367 293° West 393 452 36,000  Level Houston Center
09:14PM 30.4022 -97.5539 293° West 390 449 36,000  Level Houston Center
09:15PM 30.4464 -97.6722 293° West 392 451 36,000  Level Houston Center
09:16PM 30.4894 -97.7894 293° West 390 449 36,000  Level Houston Center
09:17PM 30.5336 -97.9078 293° West 394 453 36,000  Level Houston Center
09:18PM 30.5767 -98.0261 293° West 393 452 36,000  Level Houston Center
09:19PM 30.6208 -98.1453 293° West 397 457 36,000  Level Houston Center
09:20PM 30.6639 -98.2644 293° West 396 456 36,000  Level Houston Center
09:21PM 30.7064 -98.3839 293° West 396 456 36,000  Level Houston Center
09:22PM 30.7503 -98.5036 293° West 398 458 36,000  Level Houston Center
09:23PM 30.7931 -98.6236 293° West 398 458 36,000  Level Houston Center
09:24PM 30.8361 -98.7433 293° West 397 457 36,000  Level Houston Center
09:25PM 30.8803 -98.8622 293° West 395 455 36,000  Level Houston Center
09:26PM 30.9214 -98.9828 292° West 397 457 36,000  Level Houston Center
09:27PM 30.9636 -99.1000 293° West 391 450 36,000  Level Houston Center
09:28PM 31.0022 -99.2097 292° West 387 445 36,000  Level Houston Center
09:29PM 31.0428 -99.3244 292° West 384 442 36,000  Level Houston Center
09:30PM 31.0833 -99.4392 292° West 385 443 36,000  Level Houston Center
09:31PM 31.1236 -99.5522 293° West 378 435 36,000  Level Houston Center
09:32PM 31.1694 -99.6875 292° West 379 436 36,000  Level Houston Center
09:33PM 31.2100 -99.8011 293° West 376 433 36,000  Level Houston Center
09:34PM 31.2489 -99.9158 292° West 383 441 36,000  Level Houston Center
09:35PM 31.2889 -100.0297 292° West 378 435 36,000 -540 Level Houston Center
09:36PM 31.3283 -100.1436 292° West 378 435 35,000 -1,080 Descending Houston Center
09:37PM 31.3686 -100.2617 292° West 388 447 33,900 -1,020 Descending Houston Center
09:38PM 31.3961 -100.3433 292° West 376 433 33,300 -960 Descending Fort Worth Center
09:39PM 31.4353 -100.4592 292° West 376 433 32,300 -1,020 Descending Fort Worth Center
09:40PM 31.4742 -100.5725 292° West 376 433 31,300 1,800 Descending Fort Worth Center
09:41PM 31.5189 -100.7008 292° West 376 433 36,000 -3,180 Climbing Fort Worth Center
09:42PM 31.5575 -100.8239 290° West 386 444 25,000 -6,360 Descending Fort Worth Center
09:43PM 31.5981 -100.9375 293° West 391 450 23,300 -1,740 Descending Fort Worth Center
09:44PM 31.6328 -101.0414 291° West 367 422 21,600 -2,040 Descending Fort Worth Center
09:45PM 31.6653 -101.1378 292° West 340 391 19,300 -2,340 Descending Fort Worth Center
09:46PM 31.6961 -101.2319 291° West 327 376 17,000 -2,280 Descending Fort Worth Center
09:47PM 31.7325 -101.3311 293° West 316 364 14,800 -1,560 Descending Fort Worth Center
09:48PM 31.7611 -101.4228 290° West 311 358 13,900 -1,020 Descending Fort Worth Center
09:49PM 31.7872 -101.5142 289° West 311 358 12,800 -900 Descending Fort Worth Center
09:50PM 31.8219 -101.6064 294° West 311 358 12,200 -900 Descending Fort Worth Center
09:51PM 31.8417 -101.6978 284° West 305 351 11,000 -1,440 Descending Fort Worth Center
09:52PM 31.8553 -101.7864 280° West 291 335 9,400 -1,560 Descending Fort Worth Center
09:53PM 31.8692 -101.8700 281° West 280 322 7,900 -1,560 Descending Fort Worth Center
09:54PM 31.8850 -101.9542 283° West 275 316 6,300 -1,020 Descending Fort Worth Center
09:55PM 31.8967 -102.0281 281° West 257 296 5,900 -720 Descending Fort Worth Center
09:56PM 31.8989 -102.0869 273° West 219 252 4,900 -960 Descending Fort Worth Center
09:57PM 31.9158 -102.1342 293° West 181 208 4,000 -780 Descending Fort Worth Center
09:58PM 31.9311 -102.1692 297° West 145 167 3,400 -600 Descending Fort Worth Center
09:59PM 31.9422 -102.2089 288° West 136 157 2,900 -540 Descending Fort Worth Center